sensor_id;sensor_type;location;lat;lon;timestamp;temperature;humidity
46319;DHT22;32042;50.916;2.926;2023-08-17T00:01:43;17.20;99.90
46319;DHT22;32042;50.916;2.926;2023-08-17T00:04:09;17.10;99.90
46319;DHT22;32042;50.916;2.926;2023-08-17T00:06:35;17.20;99.90
46319;DHT22;32042;50.916;2.926;2023-08-17T00:09:01;17.10;99.90
46319;DHT22;32042;50.916;2.926;2023-08-17T00:11:27;17.10;99.90
46319;DHT22;32042;50.916;2.926;2023-08-17T00:13:52;17.10;99.90
46319;DHT22;32042;50.916;2.926;2023-08-17T00:16:18;17.10;99.90
46319;DHT22;32042;50.916;2.926;2023-08-17T00:18:44;17.10;99.90
46319;DHT22;32042;50.916;2.926;2023-08-17T00:21:09;17.00;99.90
46319;DHT22;32042;50.916;2.926;2023-08-17T00:23:35;17.00;99.90
46319;DHT22;32042;50.916;2.926;2023-08-17T00:26:01;17.00;99.90
46319;DHT22;32042;50.916;2.926;2023-08-17T00:28:27;16.90;99.90
46319;DHT22;32042;50.916;2.926;2023-08-17T00:30:53;16.90;99.90
46319;DHT22;32042;50.916;2.926;2023-08-17T00:33:18;16.90;99.90
46319;DHT22;32042;50.916;2.926;2023-08-17T00:35:44;16.80;99.90
46319;DHT22;32042;50.916;2.926;2023-08-17T00:38:11;16.80;99.90
46319;DHT22;32042;50.916;2.926;2023-08-17T00:40:37;16.80;99.90
46319;DHT22;32042;50.916;2.926;2023-08-17T00:43:04;16.80;99.90
46319;DHT22;32042;50.916;2.926;2023-08-17T00:45:30;16.80;99.90
46319;DHT22;32042;50.916;2.926;2023-08-17T00:47:57;16.80;99.90
46319;DHT22;32042;50.916;2.926;2023-08-17T00:50:27;16.80;99.90
46319;DHT22;32042;50.916;2.926;2023-08-17T00:52:55;16.80;99.90
46319;DHT22;32042;50.916;2.926;2023-08-17T00:55:21;16.70;99.90
46319;DHT22;32042;50.916;2.926;2023-08-17T00:57:47;16.70;99.90
46319;DHT22;32042;50.916;2.926;2023-08-17T01:00:14;16.70;99.90
46319;DHT22;32042;50.916;2.926;2023-08-17T01:02:41;16.60;99.90
46319;DHT22;32042;50.916;2.926;2023-08-17T01:05:07;16.60;99.90
46319;DHT22;32042;50.916;2.926;2023-08-17T01:07:33;16.60;99.90
46319;DHT22;32042;50.916;2.926;2023-08-17T01:10:00;16.60;99.90
46319;DHT22;32042;50.916;2.926;2023-08-17T01:12:32;16.60;99.90
46319;DHT22;32042;50.916;2.926;2023-08-17T01:17:37;16.60;99.90
46319;DHT22;32042;50.916;2.926;2023-08-17T01:20:07;16.50;99.90
46319;DHT22;32042;50.916;2.926;2023-08-17T01:22:35;16.50;99.90
46319;DHT22;32042;50.916;2.926;2023-08-17T01:25:02;16.50;99.90
46319;DHT22;32042;50.916;2.926;2023-08-17T01:27:40;16.50;99.90
46319;DHT22;32042;50.916;2.926;2023-08-17T01:30:08;16.40;99.90
46319;DHT22;32042;50.916;2.926;2023-08-17T01:32:48;16.40;99.90
46319;DHT22;32042;50.916;2.926;2023-08-17T01:35:34;16.40;99.90
46319;DHT22;32042;50.916;2.926;2023-08-17T01:38:06;16.40;99.90
46319;DHT22;32042;50.916;2.926;2023-08-17T01:40:33;16.40;99.90
46319;DHT22;32042;50.916;2.926;2023-08-17T01:43:01;16.30;99.90
46319;DHT22;32042;50.916;2.926;2023-08-17T01:45:27;16.40;99.90
46319;DHT22;32042;50.916;2.926;2023-08-17T01:47:54;16.30;99.90
46319;DHT22;32042;50.916;2.926;2023-08-17T01:50:20;16.30;99.90
46319;DHT22;32042;50.916;2.926;2023-08-17T01:52:46;16.30;99.90
46319;DHT22;32042;50.916;2.926;2023-08-17T01:55:12;16.30;99.90
46319;DHT22;32042;50.916;2.926;2023-08-17T02:00:07;16.30;99.90
46319;DHT22;32042;50.916;2.926;2023-08-17T02:02:36;16.30;99.90
46319;DHT22;32042;50.916;2.926;2023-08-17T02:05:02;16.20;99.90
46319;DHT22;32042;50.916;2.926;2023-08-17T02:07:28;16.20;99.90
46319;DHT22;32042;50.916;2.926;2023-08-17T02:09:54;16.20;99.90
46319;DHT22;32042;50.916;2.926;2023-08-17T02:12:19;16.10;99.90
46319;DHT22;32042;50.916;2.926;2023-08-17T02:14:45;16.20;99.90
46319;DHT22;32042;50.916;2.926;2023-08-17T02:17:11;16.20;99.90
46319;DHT22;32042;50.916;2.926;2023-08-17T02:19:37;16.20;99.90
46319;DHT22;32042;50.916;2.926;2023-08-17T02:22:03;16.20;99.90
46319;DHT22;32042;50.916;2.926;2023-08-17T02:24:29;16.20;99.90
46319;DHT22;32042;50.916;2.926;2023-08-17T02:26:54;16.10;99.90
46319;DHT22;32042;50.916;2.926;2023-08-17T02:29:20;16.10;99.90
46319;DHT22;32042;50.916;2.926;2023-08-17T02:31:46;16.10;99.90
46319;DHT22;32042;50.916;2.926;2023-08-17T02:34:13;16.10;99.90
46319;DHT22;32042;50.916;2.926;2023-08-17T02:36:40;16.10;99.90
46319;DHT22;32042;50.916;2.926;2023-08-17T02:39:07;16.10;99.90
46319;DHT22;32042;50.916;2.926;2023-08-17T02:41:34;16.10;99.90
46319;DHT22;32042;50.916;2.926;2023-08-17T02:44:01;16.10;99.90
46319;DHT22;32042;50.916;2.926;2023-08-17T02:46:28;16.10;99.90
46319;DHT22;32042;50.916;2.926;2023-08-17T02:48:56;16.10;99.90
46319;DHT22;32042;50.916;2.926;2023-08-17T02:51:22;16.10;99.90
46319;DHT22;32042;50.916;2.926;2023-08-17T02:53:48;16.10;99.90
46319;DHT22;32042;50.916;2.926;2023-08-17T02:56:14;16.10;99.90
46319;DHT22;32042;50.916;2.926;2023-08-17T02:58:40;16.10;99.90
46319;DHT22;32042;50.916;2.926;2023-08-17T03:01:09;16.10;99.90
46319;DHT22;32042;50.916;2.926;2023-08-17T03:03:35;16.10;99.90
46319;DHT22;32042;50.916;2.926;2023-08-17T03:06:02;16.10;99.90
46319;DHT22;32042;50.916;2.926;2023-08-17T03:08:28;16.00;99.90
46319;DHT22;32042;50.916;2.926;2023-08-17T03:10:54;16.00;99.90
46319;DHT22;32042;50.916;2.926;2023-08-17T03:13:20;16.00;99.90
46319;DHT22;32042;50.916;2.926;2023-08-17T03:15:46;16.00;99.90
46319;DHT22;32042;50.916;2.926;2023-08-17T03:18:12;16.00;99.90
46319;DHT22;32042;50.916;2.926;2023-08-17T03:20:37;16.00;99.90
46319;DHT22;32042;50.916;2.926;2023-08-17T03:23:03;16.00;99.90
46319;DHT22;32042;50.916;2.926;2023-08-17T03:25:34;16.00;99.90
46319;DHT22;32042;50.916;2.926;2023-08-17T03:28:00;16.10;99.90
46319;DHT22;32042;50.916;2.926;2023-08-17T03:30:26;16.10;99.90
46319;DHT22;32042;50.916;2.926;2023-08-17T03:32:52;16.10;99.90
46319;DHT22;32042;50.916;2.926;2023-08-17T03:35:18;16.00;99.90
46319;DHT22;32042;50.916;2.926;2023-08-17T03:37:44;16.10;99.90
46319;DHT22;32042;50.916;2.926;2023-08-17T03:40:10;16.10;99.90
46319;DHT22;32042;50.916;2.926;2023-08-17T03:42:36;16.10;99.90
46319;DHT22;32042;50.916;2.926;2023-08-17T03:45:02;16.00;99.90
46319;DHT22;32042;50.916;2.926;2023-08-17T03:47:28;16.00;99.90
46319;DHT22;32042;50.916;2.926;2023-08-17T03:49:54;16.10;99.90
46319;DHT22;32042;50.916;2.926;2023-08-17T03:52:20;16.10;99.90
46319;DHT22;32042;50.916;2.926;2023-08-17T03:54:46;16.00;99.90
46319;DHT22;32042;50.916;2.926;2023-08-17T03:57:12;16.00;99.90
46319;DHT22;32042;50.916;2.926;2023-08-17T03:59:38;16.00;99.90
46319;DHT22;32042;50.916;2.926;2023-08-17T04:02:03;16.10;99.90
46319;DHT22;32042;50.916;2.926;2023-08-17T04:04:29;16.10;99.90
46319;DHT22;32042;50.916;2.926;2023-08-17T04:06:55;16.10;99.90
46319;DHT22;32042;50.916;2.926;2023-08-17T04:09:20;16.10;99.90
46319;DHT22;32042;50.916;2.926;2023-08-17T04:11:46;16.10;99.90
46319;DHT22;32042;50.916;2.926;2023-08-17T04:14:12;16.10;99.90
46319;DHT22;32042;50.916;2.926;2023-08-17T04:16:39;16.10;99.90
46319;DHT22;32042;50.916;2.926;2023-08-17T04:19:05;16.10;99.90
46319;DHT22;32042;50.916;2.926;2023-08-17T04:21:31;16.10;99.90
46319;DHT22;32042;50.916;2.926;2023-08-17T04:23:56;16.10;99.90
46319;DHT22;32042;50.916;2.926;2023-08-17T04:26:22;16.10;99.90
46319;DHT22;32042;50.916;2.926;2023-08-17T04:28:49;16.00;99.90
46319;DHT22;32042;50.916;2.926;2023-08-17T04:31:14;16.00;99.90
46319;DHT22;32042;50.916;2.926;2023-08-17T04:33:42;16.00;99.90
46319;DHT22;32042;50.916;2.926;2023-08-17T04:36:08;16.00;99.90
46319;DHT22;32042;50.916;2.926;2023-08-17T04:38:34;16.00;99.90
46319;DHT22;32042;50.916;2.926;2023-08-17T04:40:59;16.00;99.90
46319;DHT22;32042;50.916;2.926;2023-08-17T04:43:25;16.00;99.90
46319;DHT22;32042;50.916;2.926;2023-08-17T04:45:51;16.00;99.90
46319;DHT22;32042;50.916;2.926;2023-08-17T04:48:16;16.00;99.90
46319;DHT22;32042;50.916;2.926;2023-08-17T04:50:42;16.00;99.90
46319;DHT22;32042;50.916;2.926;2023-08-17T04:53:08;16.00;99.90
46319;DHT22;32042;50.916;2.926;2023-08-17T04:55:34;15.90;99.90
46319;DHT22;32042;50.916;2.926;2023-08-17T04:57:59;16.00;99.90
46319;DHT22;32042;50.916;2.926;2023-08-17T05:00:25;15.90;99.90
46319;DHT22;32042;50.916;2.926;2023-08-17T05:02:54;15.90;99.90
46319;DHT22;32042;50.916;2.926;2023-08-17T05:05:20;15.90;99.90
46319;DHT22;32042;50.916;2.926;2023-08-17T05:07:46;15.90;99.90
46319;DHT22;32042;50.916;2.926;2023-08-17T05:10:11;15.80;99.90
46319;DHT22;32042;50.916;2.926;2023-08-17T05:12:37;15.80;99.90
46319;DHT22;32042;50.916;2.926;2023-08-17T05:15:03;15.80;99.90
46319;DHT22;32042;50.916;2.926;2023-08-17T05:17:29;15.80;99.90
46319;DHT22;32042;50.916;2.926;2023-08-17T05:19:55;15.80;99.90
46319;DHT22;32042;50.916;2.926;2023-08-17T05:22:21;15.80;99.90
46319;DHT22;32042;50.916;2.926;2023-08-17T05:24:47;15.80;99.90
46319;DHT22;32042;50.916;2.926;2023-08-17T05:27:12;15.80;99.90
46319;DHT22;32042;50.916;2.926;2023-08-17T05:29:38;15.80;99.90
46319;DHT22;32042;50.916;2.926;2023-08-17T05:32:04;15.80;99.90
46319;DHT22;32042;50.916;2.926;2023-08-17T05:34:30;15.90;99.90
46319;DHT22;32042;50.916;2.926;2023-08-17T05:36:56;15.90;99.90
46319;DHT22;32042;50.916;2.926;2023-08-17T05:39:22;15.90;99.90
46319;DHT22;32042;50.916;2.926;2023-08-17T05:41:47;15.90;99.90
46319;DHT22;32042;50.916;2.926;2023-08-17T05:44:13;15.90;99.90
46319;DHT22;32042;50.916;2.926;2023-08-17T05:46:40;16.00;99.90
46319;DHT22;32042;50.916;2.926;2023-08-17T05:49:06;16.00;99.90
46319;DHT22;32042;50.916;2.926;2023-08-17T05:51:32;16.00;99.90
46319;DHT22;32042;50.916;2.926;2023-08-17T05:53:58;16.00;99.90
46319;DHT22;32042;50.916;2.926;2023-08-17T05:56:23;16.10;99.90
46319;DHT22;32042;50.916;2.926;2023-08-17T05:58:49;16.10;99.90
46319;DHT22;32042;50.916;2.926;2023-08-17T06:01:15;16.10;99.90
46319;DHT22;32042;50.916;2.926;2023-08-17T06:03:41;16.20;99.90
46319;DHT22;32042;50.916;2.926;2023-08-17T06:06:07;16.20;99.90
46319;DHT22;32042;50.916;2.926;2023-08-17T06:08:33;16.20;99.90
46319;DHT22;32042;50.916;2.926;2023-08-17T06:10:58;16.30;99.90
46319;DHT22;32042;50.916;2.926;2023-08-17T06:13:24;16.30;99.90
46319;DHT22;32042;50.916;2.926;2023-08-17T06:15:50;16.40;99.90
46319;DHT22;32042;50.916;2.926;2023-08-17T06:18:16;16.40;99.90
46319;DHT22;32042;50.916;2.926;2023-08-17T06:20:42;16.40;99.90
46319;DHT22;32042;50.916;2.926;2023-08-17T06:23:08;16.50;99.90
46319;DHT22;32042;50.916;2.926;2023-08-17T06:25:34;16.60;99.90
46319;DHT22;32042;50.916;2.926;2023-08-17T06:28:01;16.60;99.90
46319;DHT22;32042;50.916;2.926;2023-08-17T06:30:27;16.70;99.90
46319;DHT22;32042;50.916;2.926;2023-08-17T06:32:52;16.80;99.90
46319;DHT22;32042;50.916;2.926;2023-08-17T06:35:18;16.80;99.90
46319;DHT22;32042;50.916;2.926;2023-08-17T06:37:44;16.90;99.90
46319;DHT22;32042;50.916;2.926;2023-08-17T06:40:10;17.00;99.90
46319;DHT22;32042;50.916;2.926;2023-08-17T06:42:36;17.10;99.90
46319;DHT22;32042;50.916;2.926;2023-08-17T06:45:03;17.10;99.90
46319;DHT22;32042;50.916;2.926;2023-08-17T06:47:28;17.20;99.90
46319;DHT22;32042;50.916;2.926;2023-08-17T06:49:55;17.30;99.90
46319;DHT22;32042;50.916;2.926;2023-08-17T06:52:23;17.40;99.90
46319;DHT22;32042;50.916;2.926;2023-08-17T06:54:50;17.40;99.90
46319;DHT22;32042;50.916;2.926;2023-08-17T06:57:16;17.50;99.90
46319;DHT22;32042;50.916;2.926;2023-08-17T06:59:42;17.50;99.90
46319;DHT22;32042;50.916;2.926;2023-08-17T07:02:11;17.60;99.90
46319;DHT22;32042;50.916;2.926;2023-08-17T07:04:36;17.70;99.90
46319;DHT22;32042;50.916;2.926;2023-08-17T07:07:03;17.80;99.90
46319;DHT22;32042;50.916;2.926;2023-08-17T07:09:29;17.90;99.90
46319;DHT22;32042;50.916;2.926;2023-08-17T07:11:54;17.90;99.90
46319;DHT22;32042;50.916;2.926;2023-08-17T07:14:20;18.00;99.90
46319;DHT22;32042;50.916;2.926;2023-08-17T07:16:46;18.10;99.90
46319;DHT22;32042;50.916;2.926;2023-08-17T07:19:11;18.20;99.90
46319;DHT22;32042;50.916;2.926;2023-08-17T07:21:39;18.30;99.90
46319;DHT22;32042;50.916;2.926;2023-08-17T07:24:15;18.40;99.90
46319;DHT22;32042;50.916;2.926;2023-08-17T07:26:41;18.50;99.90
46319;DHT22;32042;50.916;2.926;2023-08-17T07:29:06;18.60;99.90
46319;DHT22;32042;50.916;2.926;2023-08-17T07:31:32;18.60;99.90
46319;DHT22;32042;50.916;2.926;2023-08-17T07:34:02;18.70;99.90
46319;DHT22;32042;50.916;2.926;2023-08-17T07:36:28;18.80;99.90
46319;DHT22;32042;50.916;2.926;2023-08-17T07:38:54;18.90;99.90
46319;DHT22;32042;50.916;2.926;2023-08-17T07:41:19;19.00;99.90
46319;DHT22;32042;50.916;2.926;2023-08-17T07:43:45;19.10;99.90
46319;DHT22;32042;50.916;2.926;2023-08-17T07:46:11;19.20;99.90
46319;DHT22;32042;50.916;2.926;2023-08-17T07:48:36;19.20;99.90
46319;DHT22;32042;50.916;2.926;2023-08-17T07:51:02;19.30;99.90
46319;DHT22;32042;50.916;2.926;2023-08-17T07:53:28;19.40;99.90
46319;DHT22;32042;50.916;2.926;2023-08-17T07:55:54;19.40;99.90
46319;DHT22;32042;50.916;2.926;2023-08-17T07:58:19;19.50;99.90
46319;DHT22;32042;50.916;2.926;2023-08-17T08:00:45;19.60;99.90
46319;DHT22;32042;50.916;2.926;2023-08-17T08:03:11;19.80;99.90
46319;DHT22;32042;50.916;2.926;2023-08-17T08:05:37;19.80;99.90
46319;DHT22;32042;50.916;2.926;2023-08-17T08:08:03;19.90;99.90
46319;DHT22;32042;50.916;2.926;2023-08-17T08:10:29;19.90;99.90
46319;DHT22;32042;50.916;2.926;2023-08-17T08:12:55;20.00;99.90
46319;DHT22;32042;50.916;2.926;2023-08-17T08:15:21;19.90;99.90
46319;DHT22;32042;50.916;2.926;2023-08-17T08:17:46;20.00;99.90
46319;DHT22;32042;50.916;2.926;2023-08-17T08:20:12;20.10;99.90
46319;DHT22;32042;50.916;2.926;2023-08-17T08:22:38;20.10;99.90
46319;DHT22;32042;50.916;2.926;2023-08-17T08:25:04;20.00;99.90
46319;DHT22;32042;50.916;2.926;2023-08-17T08:27:29;20.10;99.90
46319;DHT22;32042;50.916;2.926;2023-08-17T08:29:55;20.10;99.90
46319;DHT22;32042;50.916;2.926;2023-08-17T08:32:21;20.10;99.90
46319;DHT22;32042;50.916;2.926;2023-08-17T08:34:47;20.10;99.90
46319;DHT22;32042;50.916;2.926;2023-08-17T08:37:12;20.20;99.90
46319;DHT22;32042;50.916;2.926;2023-08-17T08:39:54;20.30;99.90
46319;DHT22;32042;50.916;2.926;2023-08-17T08:42:21;20.40;99.90
46319;DHT22;32042;50.916;2.926;2023-08-17T08:44:47;20.40;99.90
46319;DHT22;32042;50.916;2.926;2023-08-17T08:47:14;20.40;99.90
46319;DHT22;32042;50.916;2.926;2023-08-17T08:49:50;20.40;99.90
46319;DHT22;32042;50.916;2.926;2023-08-17T08:52:23;20.40;99.90
46319;DHT22;32042;50.916;2.926;2023-08-17T08:54:54;20.50;99.90
46319;DHT22;32042;50.916;2.926;2023-08-17T08:57:23;20.50;99.90
46319;DHT22;32042;50.916;2.926;2023-08-17T08:59:49;20.50;99.90
46319;DHT22;32042;50.916;2.926;2023-08-17T09:02:16;20.50;99.90
46319;DHT22;32042;50.916;2.926;2023-08-17T09:04:45;20.60;99.90
46319;DHT22;32042;50.916;2.926;2023-08-17T09:07:14;20.70;99.90
46319;DHT22;32042;50.916;2.926;2023-08-17T09:09:44;20.80;99.90
46319;DHT22;32042;50.916;2.926;2023-08-17T09:12:10;20.90;99.90
46319;DHT22;32042;50.916;2.926;2023-08-17T09:14:36;21.00;99.90
46319;DHT22;32042;50.916;2.926;2023-08-17T09:17:07;21.00;99.90
46319;DHT22;32042;50.916;2.926;2023-08-17T09:19:33;21.00;99.90
46319;DHT22;32042;50.916;2.926;2023-08-17T09:22:02;21.00;99.90
46319;DHT22;32042;50.916;2.926;2023-08-17T09:24:35;21.00;99.90
46319;DHT22;32042;50.916;2.926;2023-08-17T09:27:02;21.00;99.90
46319;DHT22;32042;50.916;2.926;2023-08-17T09:29:28;21.10;99.90
46319;DHT22;32042;50.916;2.926;2023-08-17T09:32:03;21.10;99.90
46319;DHT22;32042;50.916;2.926;2023-08-17T09:34:31;21.10;99.90
46319;DHT22;32042;50.916;2.926;2023-08-17T09:37:02;21.20;99.90
46319;DHT22;32042;50.916;2.926;2023-08-17T09:39:29;21.30;99.90
46319;DHT22;32042;50.916;2.926;2023-08-17T09:41:55;21.20;99.90
46319;DHT22;32042;50.916;2.926;2023-08-17T09:44:21;21.20;99.90
46319;DHT22;32042;50.916;2.926;2023-08-17T09:46:47;21.10;99.90
46319;DHT22;32042;50.916;2.926;2023-08-17T09:49:13;21.10;99.90
46319;DHT22;32042;50.916;2.926;2023-08-17T09:51:42;21.10;99.90
46319;DHT22;32042;50.916;2.926;2023-08-17T09:54:21;21.20;99.90
46319;DHT22;32042;50.916;2.926;2023-08-17T09:56:57;21.20;99.90
46319;DHT22;32042;50.916;2.926;2023-08-17T09:59:23;21.20;99.90
46319;DHT22;32042;50.916;2.926;2023-08-17T10:01:51;21.20;99.90
46319;DHT22;32042;50.916;2.926;2023-08-17T10:04:23;21.30;99.90
46319;DHT22;32042;50.916;2.926;2023-08-17T10:06:53;21.40;99.90
46319;DHT22;32042;50.916;2.926;2023-08-17T10:09:24;21.40;99.90
46319;DHT22;32042;50.916;2.926;2023-08-17T10:11:52;21.30;99.90
46319;DHT22;32042;50.916;2.926;2023-08-17T10:14:26;21.20;99.90
46319;DHT22;32042;50.916;2.926;2023-08-17T10:16:59;21.20;99.90
46319;DHT22;32042;50.916;2.926;2023-08-17T10:19:47;21.20;99.90
46319;DHT22;32042;50.916;2.926;2023-08-17T10:24:53;21.30;99.90
46319;DHT22;32042;50.916;2.926;2023-08-17T10:27:21;21.30;99.90
46319;DHT22;32042;50.916;2.926;2023-08-17T10:29:48;21.20;99.90
46319;DHT22;32042;50.916;2.926;2023-08-17T10:32:16;21.20;99.90
46319;DHT22;32042;50.916;2.926;2023-08-17T10:34:42;21.20;99.90
46319;DHT22;32042;50.916;2.926;2023-08-17T10:37:09;21.30;99.90
46319;DHT22;32042;50.916;2.926;2023-08-17T10:39:34;21.40;99.90
46319;DHT22;32042;50.916;2.926;2023-08-17T10:42:04;21.50;99.90
46319;DHT22;32042;50.916;2.926;2023-08-17T10:44:38;21.50;99.90
46319;DHT22;32042;50.916;2.926;2023-08-17T10:47:38;21.60;99.90
46319;DHT22;32042;50.916;2.926;2023-08-17T10:50:05;21.60;99.90
46319;DHT22;32042;50.916;2.926;2023-08-17T10:52:34;21.50;99.90
46319;DHT22;32042;50.916;2.926;2023-08-17T10:55:07;21.60;99.90
46319;DHT22;32042;50.916;2.926;2023-08-17T10:57:42;21.60;99.90
46319;DHT22;32042;50.916;2.926;2023-08-17T11:00:24;21.60;99.90
46319;DHT22;32042;50.916;2.926;2023-08-17T11:02:57;21.60;99.90
46319;DHT22;32042;50.916;2.926;2023-08-17T11:05:43;21.60;99.90
46319;DHT22;32042;50.916;2.926;2023-08-17T11:08:12;21.60;99.90
46319;DHT22;32042;50.916;2.926;2023-08-17T11:13:34;21.60;99.90
46319;DHT22;32042;50.916;2.926;2023-08-17T11:16:01;21.60;99.90
46319;DHT22;32042;50.916;2.926;2023-08-17T11:18:27;21.60;99.90
46319;DHT22;32042;50.916;2.926;2023-08-17T11:20:54;21.60;99.90
46319;DHT22;32042;50.916;2.926;2023-08-17T11:23:20;21.70;99.90
46319;DHT22;32042;50.916;2.926;2023-08-17T11:25:46;21.80;99.90
46319;DHT22;32042;50.916;2.926;2023-08-17T11:28:12;21.90;99.90
46319;DHT22;32042;50.916;2.926;2023-08-17T11:30:40;22.00;99.90
46319;DHT22;32042;50.916;2.926;2023-08-17T11:33:07;22.10;99.90
46319;DHT22;32042;50.916;2.926;2023-08-17T11:35:34;22.20;99.90
46319;DHT22;32042;50.916;2.926;2023-08-17T11:37:59;22.30;99.90
46319;DHT22;32042;50.916;2.926;2023-08-17T11:40:26;22.50;99.90
46319;DHT22;32042;50.916;2.926;2023-08-17T11:42:52;22.60;99.90
46319;DHT22;32042;50.916;2.926;2023-08-17T11:45:18;22.60;99.90
46319;DHT22;32042;50.916;2.926;2023-08-17T11:47:46;22.60;99.90
46319;DHT22;32042;50.916;2.926;2023-08-17T11:50:13;22.50;99.90
46319;DHT22;32042;50.916;2.926;2023-08-17T11:52:39;22.50;99.90
46319;DHT22;32042;50.916;2.926;2023-08-17T11:55:06;22.50;99.90
46319;DHT22;32042;50.916;2.926;2023-08-17T11:57:33;22.60;99.90
46319;DHT22;32042;50.916;2.926;2023-08-17T12:00:00;22.70;99.90
46319;DHT22;32042;50.916;2.926;2023-08-17T12:02:27;22.80;99.90
46319;DHT22;32042;50.916;2.926;2023-08-17T12:04:54;22.80;99.90
46319;DHT22;32042;50.916;2.926;2023-08-17T12:07:22;22.80;99.90
46319;DHT22;32042;50.916;2.926;2023-08-17T12:09:49;22.60;99.90
46319;DHT22;32042;50.916;2.926;2023-08-17T12:12:21;22.60;99.90
46319;DHT22;32042;50.916;2.926;2023-08-17T12:14:50;22.50;99.90
46319;DHT22;32042;50.916;2.926;2023-08-17T12:17:20;22.40;99.90
46319;DHT22;32042;50.916;2.926;2023-08-17T12:19:50;22.30;99.90
46319;DHT22;32042;50.916;2.926;2023-08-17T12:22:16;22.20;99.90
46319;DHT22;32042;50.916;2.926;2023-08-17T12:24:43;22.10;99.90
46319;DHT22;32042;50.916;2.926;2023-08-17T12:27:09;22.10;99.90
46319;DHT22;32042;50.916;2.926;2023-08-17T12:29:48;22.10;99.90
46319;DHT22;32042;50.916;2.926;2023-08-17T12:32:17;22.00;99.90
46319;DHT22;32042;50.916;2.926;2023-08-17T12:34:43;22.00;99.90
46319;DHT22;32042;50.916;2.926;2023-08-17T12:37:10;22.00;99.90
46319;DHT22;32042;50.916;2.926;2023-08-17T12:39:36;22.00;99.90
46319;DHT22;32042;50.916;2.926;2023-08-17T12:42:03;22.00;99.90
46319;DHT22;32042;50.916;2.926;2023-08-17T12:44:29;22.00;99.90
46319;DHT22;32042;50.916;2.926;2023-08-17T12:46:55;22.00;99.90
46319;DHT22;32042;50.916;2.926;2023-08-17T12:49:21;22.00;99.90
46319;DHT22;32042;50.916;2.926;2023-08-17T12:51:47;22.00;99.90
46319;DHT22;32042;50.916;2.926;2023-08-17T12:54:13;22.00;99.90
46319;DHT22;32042;50.916;2.926;2023-08-17T12:56:38;22.00;99.90
46319;DHT22;32042;50.916;2.926;2023-08-17T12:59:04;22.10;99.90
46319;DHT22;32042;50.916;2.926;2023-08-17T13:01:30;22.10;99.90
46319;DHT22;32042;50.916;2.926;2023-08-17T13:03:55;22.10;99.90
46319;DHT22;32042;50.916;2.926;2023-08-17T13:06:21;22.10;99.90
46319;DHT22;32042;50.916;2.926;2023-08-17T13:08:47;22.10;99.90
46319;DHT22;32042;50.916;2.926;2023-08-17T13:11:13;22.10;99.90
46319;DHT22;32042;50.916;2.926;2023-08-17T13:13:39;22.10;99.90
46319;DHT22;32042;50.916;2.926;2023-08-17T13:16:04;22.20;99.90
46319;DHT22;32042;50.916;2.926;2023-08-17T13:18:30;22.20;99.90
46319;DHT22;32042;50.916;2.926;2023-08-17T13:20:56;22.20;99.90
46319;DHT22;32042;50.916;2.926;2023-08-17T13:23:22;22.20;99.90
46319;DHT22;32042;50.916;2.926;2023-08-17T13:25:47;22.30;99.90
46319;DHT22;32042;50.916;2.926;2023-08-17T13:28:13;22.40;99.90
46319;DHT22;32042;50.916;2.926;2023-08-17T13:30:39;22.30;99.90
46319;DHT22;32042;50.916;2.926;2023-08-17T13:33:05;22.40;99.90
46319;DHT22;32042;50.916;2.926;2023-08-17T13:35:34;22.50;99.90
46319;DHT22;32042;50.916;2.926;2023-08-17T13:38:00;22.50;99.90
46319;DHT22;32042;50.916;2.926;2023-08-17T13:40:28;22.60;99.90
46319;DHT22;32042;50.916;2.926;2023-08-17T13:42:54;22.60;99.90
46319;DHT22;32042;50.916;2.926;2023-08-17T13:45:19;22.70;99.90
46319;DHT22;32042;50.916;2.926;2023-08-17T13:47:45;22.70;99.90
46319;DHT22;32042;50.916;2.926;2023-08-17T13:50:11;22.80;99.90
46319;DHT22;32042;50.916;2.926;2023-08-17T13:52:37;22.90;99.90
46319;DHT22;32042;50.916;2.926;2023-08-17T13:55:03;22.90;99.90
46319;DHT22;32042;50.916;2.926;2023-08-17T13:57:28;22.90;99.90
46319;DHT22;32042;50.916;2.926;2023-08-17T13:59:54;22.90;99.90
46319;DHT22;32042;50.916;2.926;2023-08-17T14:02:20;22.90;99.90
46319;DHT22;32042;50.916;2.926;2023-08-17T14:04:46;22.90;99.90
46319;DHT22;32042;50.916;2.926;2023-08-17T14:07:11;22.90;99.90
46319;DHT22;32042;50.916;2.926;2023-08-17T14:09:37;23.00;99.90
46319;DHT22;32042;50.916;2.926;2023-08-17T14:12:03;23.10;99.90
46319;DHT22;32042;50.916;2.926;2023-08-17T14:14:30;23.20;99.90
46319;DHT22;32042;50.916;2.926;2023-08-17T14:16:56;23.20;99.90
46319;DHT22;32042;50.916;2.926;2023-08-17T14:19:23;23.30;99.90
46319;DHT22;32042;50.916;2.926;2023-08-17T14:21:48;23.30;99.90
46319;DHT22;32042;50.916;2.926;2023-08-17T14:24:14;23.20;99.90
46319;DHT22;32042;50.916;2.926;2023-08-17T14:26:40;23.20;99.90
46319;DHT22;32042;50.916;2.926;2023-08-17T14:29:06;23.20;99.90
46319;DHT22;32042;50.916;2.926;2023-08-17T14:31:32;23.20;99.90
46319;DHT22;32042;50.916;2.926;2023-08-17T14:33:57;23.10;99.90
46319;DHT22;32042;50.916;2.926;2023-08-17T14:36:23;23.00;99.90
46319;DHT22;32042;50.916;2.926;2023-08-17T14:38:49;22.90;99.90
46319;DHT22;32042;50.916;2.926;2023-08-17T14:41:15;22.80;99.90
46319;DHT22;32042;50.916;2.926;2023-08-17T14:43:40;22.70;99.90
46319;DHT22;32042;50.916;2.926;2023-08-17T14:46:06;22.70;99.90
46319;DHT22;32042;50.916;2.926;2023-08-17T14:48:32;22.70;99.90
46319;DHT22;32042;50.916;2.926;2023-08-17T14:50:58;22.70;99.90
46319;DHT22;32042;50.916;2.926;2023-08-17T14:53:23;22.70;99.90
46319;DHT22;32042;50.916;2.926;2023-08-17T14:55:49;22.70;99.90
46319;DHT22;32042;50.916;2.926;2023-08-17T14:58:15;22.70;99.90
46319;DHT22;32042;50.916;2.926;2023-08-17T15:00:41;22.70;99.90
46319;DHT22;32042;50.916;2.926;2023-08-17T15:03:07;22.80;99.90
46319;DHT22;32042;50.916;2.926;2023-08-17T15:05:33;22.70;99.90
46319;DHT22;32042;50.916;2.926;2023-08-17T15:08:02;22.70;99.90
46319;DHT22;32042;50.916;2.926;2023-08-17T15:10:28;22.70;99.90
46319;DHT22;32042;50.916;2.926;2023-08-17T15:12:53;22.60;99.90
46319;DHT22;32042;50.916;2.926;2023-08-17T15:15:19;22.70;99.90
46319;DHT22;32042;50.916;2.926;2023-08-17T15:17:45;22.70;99.90
46319;DHT22;32042;50.916;2.926;2023-08-17T15:20:11;22.70;99.90
46319;DHT22;32042;50.916;2.926;2023-08-17T15:22:37;22.70;99.90
46319;DHT22;32042;50.916;2.926;2023-08-17T15:25:03;22.80;99.90
46319;DHT22;32042;50.916;2.926;2023-08-17T15:27:29;22.80;99.90
46319;DHT22;32042;50.916;2.926;2023-08-17T15:29:54;22.90;99.90
46319;DHT22;32042;50.916;2.926;2023-08-17T15:32:20;22.90;99.90
46319;DHT22;32042;50.916;2.926;2023-08-17T15:34:46;22.90;99.90
46319;DHT22;32042;50.916;2.926;2023-08-17T15:37:11;22.80;99.90
46319;DHT22;32042;50.916;2.926;2023-08-17T15:39:37;22.80;99.90